createdAt,value
2023-01-31T00:02:14.019Z,1.20
2023-01-31T00:05:16.441Z,1.20
2023-01-31T00:08:18.620Z,1.20
2023-01-31T00:11:23.029Z,1.20
2023-01-31T00:14:25.167Z,1.20
2023-01-31T00:17:26.252Z,1.10
2023-01-31T00:20:26.899Z,1.20
2023-01-31T00:23:27.851Z,1.20
2023-01-31T00:26:33.846Z,1.20
2023-01-31T00:29:34.878Z,1.10
2023-01-31T00:32:35.866Z,1.10
2023-01-31T00:35:39.915Z,1.10
2023-01-31T00:38:42.631Z,1.10
2023-01-31T00:41:43.703Z,1.00
2023-01-31T00:44:46.417Z,1.00
2023-01-31T00:47:47.272Z,1.00
2023-01-31T00:50:48.145Z,0.90
2023-01-31T00:53:50.448Z,0.90
2023-01-31T00:56:51.506Z,0.80
2023-01-31T00:59:52.507Z,0.80
2023-01-31T01:02:54.610Z,0.80
2023-01-31T01:05:57.004Z,0.90
2023-01-31T01:08:59.997Z,0.80
2023-01-31T01:12:01.113Z,0.80
2023-01-31T01:15:02.045Z,0.80
2023-01-31T01:18:02.821Z,0.80
2023-01-31T01:21:15.366Z,0.70
2023-01-31T01:24:18.570Z,0.60
2023-01-31T01:27:19.292Z,0.60
2023-01-31T01:30:21.549Z,0.50
2023-01-31T01:33:22.117Z,0.50
2023-01-31T01:36:23.010Z,0.50
2023-01-31T01:39:24.295Z,0.50
2023-01-31T01:42:26.730Z,0.40
2023-01-31T01:45:28.160Z,0.30
2023-01-31T01:48:29.306Z,0.30
2023-01-31T01:51:33.627Z,0.30
2023-01-31T01:54:38.855Z,0.20
2023-01-31T01:57:44.947Z,0.20
2023-01-31T02:00:47.150Z,0.20
2023-01-31T02:03:49.205Z,0.20
2023-01-31T02:06:50.303Z,0.20
2023-01-31T02:10:02.108Z,0.20
2023-01-31T02:13:04.159Z,0.10
2023-01-31T02:16:05.240Z,0.10
2023-01-31T02:19:19.200Z,0.00
2023-01-31T02:22:39.864Z,0.00
2023-01-31T02:26:08.871Z,0.00
2023-01-31T02:29:47.825Z,0.00
2023-01-31T02:33:01.124Z,0.00
2023-01-31T02:36:09.271Z,0.00
2023-01-31T02:39:31.599Z,0.00
2023-01-31T02:42:38.030Z,-0.10
2023-01-31T02:46:02.271Z,-0.20
2023-01-31T02:49:46.188Z,-0.20
2023-01-31T02:52:59.469Z,-0.10
2023-01-31T02:56:18.210Z,-0.10
2023-01-31T02:59:27.095Z,-0.20
2023-01-31T03:02:30.047Z,-0.20
2023-01-31T03:05:31.316Z,0.00
2023-01-31T03:08:32.790Z,0.00
2023-01-31T03:12:01.439Z,-0.20
2023-01-31T03:15:11.972Z,-0.40
2023-01-31T03:18:20.431Z,-0.40
2023-01-31T03:21:36.386Z,-0.30
2023-01-31T03:24:39.896Z,-0.10
2023-01-31T03:27:43.923Z,-0.10
2023-01-31T03:30:48.017Z,-0.10
2023-01-31T03:33:55.830Z,-0.30
2023-01-31T03:37:06.463Z,-0.50
2023-01-31T03:40:34.408Z,-0.50
2023-01-31T03:44:10.989Z,-0.30
2023-01-31T03:47:23.436Z,-0.30
2023-01-31T03:50:32.457Z,-0.50
2023-01-31T03:53:41.683Z,-0.50
2023-01-31T03:57:02.796Z,-0.40
2023-01-31T04:00:07.631Z,-0.30
2023-01-31T04:03:27.906Z,-0.30
2023-01-31T04:06:29.471Z,-0.10
2023-01-31T04:09:30.720Z,-0.10
2023-01-31T04:12:37.228Z,-0.10
2023-01-31T04:15:38.070Z,-0.20
2023-01-31T04:18:38.943Z,-0.20
2023-01-31T04:21:39.712Z,-0.10
2023-01-31T04:24:40.764Z,0.00
2023-01-31T04:27:41.691Z,-0.20
2023-01-31T04:30:42.318Z,-0.30
2023-01-31T04:33:43.212Z,-0.30
2023-01-31T04:36:44.196Z,-0.20
2023-01-31T04:39:45.030Z,-0.10
2023-01-31T04:42:46.451Z,-0.10
2023-01-31T04:45:47.446Z,0.00
2023-01-31T04:48:48.055Z,-0.10
2023-01-31T04:51:48.742Z,0.00
2023-01-31T04:54:49.789Z,0.00
2023-01-31T04:57:50.760Z,0.00
2023-01-31T05:00:53.925Z,-0.10
2023-01-31T05:03:54.672Z,-0.10
2023-01-31T05:06:55.958Z,-0.10
2023-01-31T05:09:56.720Z,-0.10
2023-01-31T05:12:57.501Z,0.00
2023-01-31T05:15:58.654Z,0.00
2023-01-31T05:18:59.693Z,0.00
2023-01-31T05:22:00.689Z,-0.10
2023-01-31T05:25:01.462Z,-0.10
2023-01-31T05:28:03.218Z,-0.20
2023-01-31T05:31:07.904Z,-0.20
2023-01-31T05:34:10.384Z,-0.20
2023-01-31T05:37:11.239Z,-0.30
2023-01-31T05:40:14.877Z,-0.30
2023-01-31T05:43:15.652Z,-0.30
2023-01-31T05:46:16.550Z,-0.40
2023-01-31T05:49:17.502Z,-0.40
2023-01-31T05:52:18.142Z,-0.40
2023-01-31T05:55:20.159Z,-0.40
2023-01-31T05:58:21.007Z,-0.40
2023-01-31T06:01:24.978Z,-0.30
2023-01-31T06:04:25.583Z,-0.20
2023-01-31T06:07:26.263Z,-0.10
2023-01-31T06:10:27.505Z,-0.20
2023-01-31T06:13:28.416Z,-0.20
2023-01-31T06:16:29.460Z,-0.10
2023-01-31T06:19:30.682Z,-0.10
2023-01-31T06:22:31.750Z,0.00
2023-01-31T06:25:33.000Z,0.10
2023-01-31T06:28:33.580Z,0.20
2023-01-31T06:31:34.698Z,0.20
2023-01-31T06:34:35.332Z,0.20
2023-01-31T06:37:36.592Z,0.20
2023-01-31T06:40:37.292Z,0.20
2023-01-31T06:43:38.037Z,0.20
2023-01-31T06:46:38.852Z,0.20
2023-01-31T06:49:39.867Z,0.20
2023-01-31T06:52:40.974Z,0.20
2023-01-31T06:55:41.609Z,0.20
2023-01-31T06:58:42.729Z,0.20
2023-01-31T07:01:43.738Z,0.10
2023-01-31T07:04:44.496Z,0.10
2023-01-31T07:07:45.722Z,0.10
2023-01-31T07:10:48.629Z,0.20
2023-01-31T07:13:50.507Z,0.20
2023-01-31T07:16:51.616Z,0.00
2023-01-31T07:19:52.589Z,-0.10
2023-01-31T07:22:57.934Z,-0.20
2023-01-31T07:25:58.821Z,-0.20
2023-01-31T07:29:00.017Z,-0.10
2023-01-31T07:32:01.167Z,-0.10
2023-01-31T07:35:02.196Z,0.00
2023-01-31T07:38:03.213Z,-0.20
2023-01-31T07:41:04.739Z,-0.30
2023-01-31T07:44:08.643Z,-0.10
2023-01-31T07:47:09.612Z,0.00
2023-01-31T07:50:11.096Z,0.00
2023-01-31T07:53:11.975Z,0.00
2023-01-31T07:56:15.814Z,0.00
2023-01-31T07:59:17.819Z,0.00
2023-01-31T08:02:37.726Z,0.20
2023-01-31T08:05:38.758Z,0.30
2023-01-31T08:08:41.553Z,0.30
2023-01-31T08:11:42.487Z,0.50
2023-01-31T08:14:43.902Z,0.60
2023-01-31T08:17:45.208Z,1.10
2023-01-31T08:20:46.141Z,1.30
2023-01-31T08:23:47.220Z,1.30
2023-01-31T08:26:47.876Z,1.50
2023-01-31T08:29:49.223Z,2.10
2023-01-31T08:32:49.968Z,2.10
2023-01-31T08:35:51.226Z,2.80
2023-01-31T08:38:52.263Z,2.50
2023-01-31T08:41:53.148Z,2.60
2023-01-31T08:44:53.909Z,6.60
2023-01-31T08:47:56.476Z,5.30
2023-01-31T08:50:57.187Z,4.90
2023-01-31T08:53:58.546Z,2.50
2023-01-31T08:56:59.236Z,4.30
2023-01-31T09:00:00.139Z,3.50
2023-01-31T09:03:01.313Z,4.30
2023-01-31T09:06:05.236Z,3.60
2023-01-31T09:09:06.447Z,4.50
2023-01-31T09:12:07.597Z,6.90
2023-01-31T09:15:09.011Z,8.70
2023-01-31T09:18:09.736Z,12.10
2023-01-31T09:21:12.351Z,12.50
2023-01-31T09:24:13.012Z,11.20
2023-01-31T09:27:13.709Z,10.00
2023-01-31T09:30:16.023Z,9.60
2023-01-31T09:33:17.481Z,9.20
2023-01-31T09:36:21.072Z,8.80
2023-01-31T09:39:21.765Z,8.30
2023-01-31T09:42:27.706Z,7.50
2023-01-31T09:45:33.339Z,7.90
2023-01-31T09:48:38.852Z,7.60
2023-01-31T09:51:40.347Z,7.80
2023-01-31T09:54:41.784Z,7.80
2023-01-31T09:58:05.163Z,7.70
2023-01-31T10:01:24.623Z,7.90
2023-01-31T10:04:50.668Z,8.60
2023-01-31T10:08:13.399Z,8.70
2023-01-31T10:11:24.900Z,8.10
2023-01-31T10:14:56.084Z,6.80
2023-01-31T10:18:06.140Z,6.60
2023-01-31T10:21:15.732Z,6.90
2023-01-31T10:24:31.620Z,7.10
2023-01-31T10:27:49.931Z,9.50
2023-01-31T10:31:38.562Z,9.70
2023-01-31T10:34:50.163Z,10.30
2023-01-31T10:37:55.804Z,9.30
2023-01-31T10:41:11.609Z,9.80
2023-01-31T10:44:27.858Z,9.70
2023-01-31T10:47:33.458Z,10.80
2023-01-31T10:50:59.499Z,10.00
2023-01-31T10:54:13.243Z,10.20
2023-01-31T10:57:14.827Z,9.50
2023-01-31T11:00:22.734Z,9.40
2023-01-31T11:03:24.979Z,7.90
2023-01-31T11:06:25.651Z,6.30
2023-01-31T11:09:30.544Z,8.20
2023-01-31T11:12:51.835Z,9.00
2023-01-31T11:15:54.641Z,10.00
2023-01-31T11:18:55.423Z,11.40
2023-01-31T11:21:59.918Z,9.70
2023-01-31T11:25:06.231Z,7.50
2023-01-31T11:28:23.798Z,6.90
2023-01-31T11:31:36.732Z,6.40
2023-01-31T11:34:37.917Z,6.20
2023-01-31T11:37:54.102Z,5.70
2023-01-31T11:40:55.352Z,5.40
2023-01-31T11:44:17.243Z,5.00
2023-01-31T11:47:18.316Z,4.90
2023-01-31T11:50:39.883Z,4.90
2023-01-31T11:53:43.757Z,4.80
2023-01-31T11:56:46.413Z,5.00
2023-01-31T11:59:51.899Z,5.00
2023-01-31T12:03:01.357Z,4.60
2023-01-31T12:06:29.888Z,4.50
2023-01-31T12:09:42.656Z,4.50
2023-01-31T12:12:46.727Z,4.70
2023-01-31T12:15:56.122Z,4.30
2023-01-31T12:19:21.515Z,4.20
2023-01-31T12:22:30.642Z,4.60
2023-01-31T12:25:53.120Z,6.80
2023-01-31T12:29:28.339Z,8.60
2023-01-31T12:32:57.278Z,7.80
2023-01-31T12:36:09.891Z,7.70
2023-01-31T12:39:17.357Z,7.80
2023-01-31T12:42:36.985Z,7.20
2023-01-31T12:45:54.404Z,7.60
2023-01-31T12:49:13.309Z,7.30
2023-01-31T12:52:39.006Z,6.90
2023-01-31T12:56:19.668Z,7.30
2023-01-31T12:59:23.487Z,7.80
2023-01-31T13:02:51.461Z,7.90
2023-01-31T13:05:59.645Z,7.00
2023-01-31T13:09:11.053Z,6.50
2023-01-31T13:12:16.935Z,6.20
2023-01-31T13:15:44.918Z,6.20
2023-01-31T13:18:49.082Z,6.60
2023-01-31T13:21:55.700Z,7.00
2023-01-31T13:25:21.994Z,7.00
2023-01-31T13:28:26.432Z,7.50
2023-01-31T13:31:38.043Z,7.00
2023-01-31T13:35:14.795Z,6.00
2023-01-31T13:38:20.464Z,5.90
2023-01-31T13:41:33.308Z,6.30
2023-01-31T13:44:34.634Z,6.00
2023-01-31T13:47:48.305Z,5.60
2023-01-31T13:50:57.823Z,5.20
2023-01-31T13:54:04.199Z,4.80
2023-01-31T13:57:06.406Z,4.80
2023-01-31T14:00:30.571Z,4.80
2023-01-31T14:03:31.705Z,4.60
2023-01-31T14:06:55.271Z,4.60
2023-01-31T14:09:58.776Z,4.30
2023-01-31T14:13:31.383Z,4.10
2023-01-31T14:16:46.285Z,4.10
2023-01-31T14:19:47.480Z,4.00
2023-01-31T14:23:28.647Z,4.00
2023-01-31T14:26:45.265Z,3.90
2023-01-31T14:30:01.060Z,3.90
2023-01-31T14:33:14.117Z,3.90
2023-01-31T14:36:26.680Z,3.90
2023-01-31T14:40:01.000Z,3.80
2023-01-31T14:43:25.434Z,3.80
2023-01-31T14:46:48.129Z,3.80
2023-01-31T14:50:17.375Z,3.80
2023-01-31T14:53:47.584Z,3.80
2023-01-31T14:56:50.989Z,3.80
2023-01-31T15:00:02.701Z,3.70
2023-01-31T15:03:20.312Z,3.70
2023-01-31T15:06:27.709Z,3.70
2023-01-31T15:09:37.748Z,3.70
2023-01-31T15:13:00.025Z,3.70
2023-01-31T15:16:03.410Z,3.60
2023-01-31T15:19:13.142Z,3.60
2023-01-31T15:22:18.072Z,3.60
2023-01-31T15:25:28.278Z,3.60
2023-01-31T15:28:38.613Z,3.50
2023-01-31T15:31:44.567Z,3.50
2023-01-31T15:35:15.680Z,3.80
2023-01-31T15:38:38.306Z,3.70
2023-01-31T15:41:41.331Z,3.60
2023-01-31T15:44:42.479Z,3.60
2023-01-31T15:47:44.416Z,3.60
2023-01-31T15:50:55.022Z,3.50
2023-01-31T15:54:06.243Z,3.40
2023-01-31T15:57:15.687Z,3.40
2023-01-31T16:00:40.715Z,3.30
2023-01-31T16:03:43.537Z,3.30
2023-01-31T16:06:47.068Z,3.30
2023-01-31T16:09:48.739Z,3.30
2023-01-31T16:12:51.136Z,3.30
2023-01-31T16:15:52.784Z,3.30
2023-01-31T16:18:56.092Z,3.20
2023-01-31T16:21:58.540Z,3.20
2023-01-31T16:25:02.644Z,3.20
2023-01-31T16:28:12.075Z,3.10
2023-01-31T16:31:16.040Z,3.10
2023-01-31T16:34:30.599Z,3.20
2023-01-31T16:37:43.657Z,3.10
2023-01-31T16:40:51.081Z,3.10
2023-01-31T16:43:52.224Z,3.10
2023-01-31T16:46:54.057Z,3.00
2023-01-31T16:50:17.986Z,3.00
2023-01-31T16:53:22.044Z,3.00
2023-01-31T16:56:23.295Z,3.00
2023-01-31T16:59:33.594Z,3.10
2023-01-31T17:02:41.368Z,3.10
2023-01-31T17:05:46.515Z,3.10
2023-01-31T17:08:48.851Z,3.00
2023-01-31T17:11:50.381Z,3.00
2023-01-31T17:14:57.269Z,3.10
2023-01-31T17:17:58.532Z,3.10
2023-01-31T17:20:59.336Z,3.10
2023-01-31T17:24:00.087Z,3.10
2023-01-31T17:27:01.045Z,3.00
2023-01-31T17:30:02.243Z,3.00
2023-01-31T17:33:02.983Z,2.90
2023-01-31T17:36:04.183Z,2.90
2023-01-31T17:39:04.960Z,2.90
2023-01-31T17:42:06.979Z,2.90
2023-01-31T17:45:13.940Z,2.80
2023-01-31T17:48:25.719Z,2.80
2023-01-31T17:51:27.334Z,2.90
2023-01-31T17:54:28.984Z,3.00
2023-01-31T17:57:29.863Z,3.00
2023-01-31T18:00:31.086Z,3.00
2023-01-31T18:03:32.147Z,3.00
2023-01-31T18:06:33.557Z,3.00
2023-01-31T18:09:34.118Z,3.00
2023-01-31T18:12:36.610Z,3.00
2023-01-31T18:15:40.093Z,3.00
2023-01-31T18:18:41.347Z,2.90
2023-01-31T18:21:53.440Z,2.90
2023-01-31T18:24:55.145Z,2.90
2023-01-31T18:27:56.033Z,2.80
2023-01-31T18:31:13.828Z,2.80
2023-01-31T18:34:15.527Z,2.80
2023-01-31T18:37:20.392Z,2.80
2023-01-31T18:40:21.799Z,2.80
2023-01-31T18:43:23.192Z,2.80
2023-01-31T18:46:24.053Z,2.80
2023-01-31T18:49:25.060Z,2.90
2023-01-31T18:52:26.215Z,2.90
2023-01-31T18:55:27.115Z,2.90
2023-01-31T18:58:34.756Z,2.90
2023-01-31T19:01:36.176Z,3.10
2023-01-31T19:04:37.117Z,3.20
2023-01-31T19:07:37.927Z,3.10
2023-01-31T19:10:38.775Z,3.20
2023-01-31T19:13:40.798Z,3.20
2023-01-31T19:16:42.742Z,3.20
2023-01-31T19:19:43.669Z,3.20
2023-01-31T19:22:44.676Z,3.20
2023-01-31T19:25:45.497Z,3.20
2023-01-31T19:28:47.779Z,3.20
2023-01-31T19:31:48.655Z,3.20
2023-01-31T19:34:49.660Z,3.20
2023-01-31T19:37:50.581Z,3.10
2023-01-31T19:40:51.936Z,3.10
2023-01-31T19:43:58.041Z,3.20
2023-01-31T19:46:58.804Z,3.20
2023-01-31T19:49:59.744Z,3.30
2023-01-31T19:53:00.376Z,3.30
2023-01-31T19:56:01.339Z,3.40
2023-01-31T19:59:02.809Z,3.40
2023-01-31T20:02:03.718Z,3.40
2023-01-31T20:05:05.000Z,3.40
2023-01-31T20:08:06.008Z,3.40
2023-01-31T20:11:08.431Z,3.40
2023-01-31T20:14:09.785Z,3.50
2023-01-31T20:17:10.545Z,3.50
2023-01-31T20:20:11.846Z,3.50
2023-01-31T20:23:12.901Z,3.60
2023-01-31T20:26:15.502Z,3.60
2023-01-31T20:29:16.162Z,3.60
2023-01-31T20:32:18.081Z,3.60
2023-01-31T20:35:19.340Z,3.60
2023-01-31T20:38:20.080Z,3.60
2023-01-31T20:41:22.640Z,3.60
2023-01-31T20:44:23.504Z,3.60
2023-01-31T20:47:24.347Z,3.60
2023-01-31T20:50:26.575Z,3.50
2023-01-31T20:53:28.817Z,3.50
2023-01-31T20:56:29.305Z,3.50
2023-01-31T20:59:30.107Z,3.50
2023-01-31T21:02:30.981Z,3.50
2023-01-31T21:05:31.728Z,3.50
2023-01-31T21:08:33.622Z,3.40
2023-01-31T21:11:34.269Z,3.40
2023-01-31T21:14:35.142Z,3.40
2023-01-31T21:17:40.253Z,3.40
2023-01-31T21:20:41.391Z,3.40
2023-01-31T21:23:42.632Z,3.40
2023-01-31T21:26:43.921Z,3.40
2023-01-31T21:29:45.000Z,3.40
2023-01-31T21:32:46.657Z,3.40
2023-01-31T21:35:47.684Z,3.40
2023-01-31T21:38:49.064Z,3.40
2023-01-31T21:42:08.828Z,3.50
2023-01-31T21:45:10.035Z,3.50
2023-01-31T21:48:29.945Z,3.40
2023-01-31T21:51:30.663Z,3.40
2023-01-31T21:54:31.889Z,3.40
2023-01-31T21:57:32.757Z,3.30
2023-01-31T22:00:33.609Z,3.40
2023-01-31T22:03:35.514Z,3.30
2023-01-31T22:06:37.998Z,3.30
2023-01-31T22:09:38.580Z,3.30
2023-01-31T22:12:39.598Z,3.30
2023-01-31T22:15:40.535Z,3.30
2023-01-31T22:18:42.612Z,3.30
2023-01-31T22:21:44.025Z,3.30
2023-01-31T22:24:45.013Z,3.30
2023-01-31T22:27:46.119Z,3.30
2023-01-31T22:30:57.719Z,3.30
2023-01-31T22:34:00.241Z,3.30
2023-01-31T22:37:00.987Z,3.30
2023-01-31T22:40:01.797Z,3.30
2023-01-31T22:43:02.831Z,3.30
2023-01-31T22:46:04.438Z,3.30
2023-01-31T22:49:05.475Z,3.30
2023-01-31T22:52:06.374Z,3.30
2023-01-31T22:55:07.385Z,3.30
2023-01-31T22:58:10.008Z,3.30
2023-01-31T23:01:13.400Z,3.30
2023-01-31T23:04:13.937Z,3.40
2023-01-31T23:07:15.100Z,3.30
2023-01-31T23:10:16.174Z,3.30
2023-01-31T23:13:17.339Z,3.40
2023-01-31T23:16:21.099Z,3.40
2023-01-31T23:19:22.079Z,3.40
2023-01-31T23:22:23.052Z,3.40
2023-01-31T23:25:27.068Z,3.40
2023-01-31T23:28:28.495Z,3.40
2023-01-31T23:31:29.737Z,3.40
2023-01-31T23:34:30.648Z,3.40
2023-01-31T23:37:32.201Z,3.50
2023-01-31T23:40:32.699Z,3.50
2023-01-31T23:43:33.544Z,3.40
2023-01-31T23:46:34.622Z,3.40
2023-01-31T23:49:35.643Z,3.40
2023-01-31T23:52:36.599Z,3.40
2023-01-31T23:55:37.298Z,3.30
2023-01-31T23:58:38.015Z,3.30
